Time;durP1;ratioP1;P1;durP2;ratioP2;P2;SDS_P1;SDS_P2;PMS_P1;PMS_P2;Temp;Humidity;BMP_temperature;BMP_pressure;BME280_temperature;BME280_humidity;BME280_pressure;Samples;Min_cycle;Max_cycle;Signal;HPM_P1;HPM_P2
2023/03/19 00:01:20;;;;;;;7.20;4.45;;;14.40;86.10;;;;;;10027677;28;20029;-69
2023/03/19 00:06:11;;;;;;;7.63;4.25;;;14.40;86.50;;;;;;10020754;28;20184;-70
2023/03/19 00:11:09;;;;;;;4.53;3.47;;;14.30;86.70;;;;;;10021779;28;20042;-71
2023/03/19 00:16:00;;;;;;;7.55;3.28;;;14.30;87.30;;;;;;10025141;28;20045;-71
2023/03/19 00:20:51;;;;;;;7.97;3.53;;;14.30;87.70;;;;;;10037572;28;20459;-72
2023/03/19 00:25:41;;;;;;;4.97;3.28;;;14.20;88.20;;;;;;10011555;28;20038;-69
2023/03/19 00:30:32;;;;;;;5.43;3.17;;;14.10;88.50;;;;;;10039580;28;20029;-71
2023/03/19 00:35:23;;;;;;;6.68;4.15;;;14.10;88.90;;;;;;10020499;28;20037;-70
2023/03/19 00:40:14;;;;;;;8.15;4.35;;;14.10;89.30;;;;;;10021010;28;20022;-71
2023/03/19 00:45:05;;;;;;;10.38;5.28;;;14.10;89.40;;;;;;10037585;28;20088;-70
2023/03/19 00:49:55;;;;;;;17.65;8.15;;;14.20;89.80;;;;;;10045113;28;20156;-70
2023/03/19 00:54:46;;;;;;;6.43;3.63;;;14.20;90.10;;;;;;10048210;28;20610;-69
2023/03/19 00:59:40;;;;;;;5.07;2.60;;;14.20;90.20;;;;;;10026087;28;20018;-72
2023/03/19 01:04:31;;;;;;;4.25;2.70;;;14.10;90.40;;;;;;10026769;28;20515;-71
2023/03/19 01:09:21;;;;;;;7.57;3.30;;;14.00;90.60;;;;;;10028190;28;20014;-71
2023/03/19 01:14:15;;;;;;;6.30;3.17;;;14.00;90.70;;;;;;10037909;28;20475;-71
2023/03/19 01:19:06;;;;;;;7.20;3.42;;;14.10;90.80;;;;;;10032026;28;20331;-71
2023/03/19 01:23:57;;;;;;;4.50;2.83;;;14.10;91.00;;;;;;10007212;28;20030;-71
2023/03/19 01:28:48;;;;;;;5.65;3.40;;;14.20;91.10;;;;;;10024482;28;20066;-71
2023/03/19 01:33:39;;;;;;;4.85;2.75;;;14.10;91.20;;;;;;10011291;28;20091;-69
2023/03/19 01:38:30;;;;;;;5.13;3.08;;;14.10;91.30;;;;;;10022122;28;20026;-70
2023/03/19 01:43:26;;;;;;;4.22;3.45;;;14.10;91.50;;;;;;10024653;28;20256;-71
2023/03/19 01:48:27;;;;;;;6.00;2.72;;;14.10;91.60;;;;;;10017149;28;20077;-71
2023/03/19 01:53:21;;;;;;;4.90;2.83;;;14.20;91.60;;;;;;10027447;28;20049;-70
2023/03/19 01:58:13;;;;;;;5.18;2.50;;;14.20;91.60;;;;;;10028210;28;20567;-71
2023/03/19 02:03:05;;;;;;;5.43;2.20;;;14.20;91.70;;;;;;10009572;28;20095;-71
2023/03/19 02:08:00;;;;;;;3.67;2.50;;;14.10;91.80;;;;;;10017866;28;20030;-70
2023/03/19 02:12:51;;;;;;;4.38;2.80;;;14.00;91.90;;;;;;10017643;28;20033;-71
2023/03/19 02:17:42;;;;;;;5.88;2.55;;;14.00;91.90;;;;;;10016685;28;20491;-70
2023/03/19 02:22:35;;;;;;;5.40;3.00;;;14.00;92.00;;;;;;10007069;28;20086;-67
2023/03/19 02:27:26;;;;;;;4.18;2.22;;;13.90;92.00;;;;;;10041602;28;20042;-70
2023/03/19 02:32:16;;;;;;;3.17;2.10;;;14.00;92.00;;;;;;10038224;28;20029;-70
2023/03/19 02:37:13;;;;;;;4.28;2.20;;;14.00;92.00;;;;;;10023600;28;20668;-71
2023/03/19 02:42:04;;;;;;;4.70;2.00;;;14.00;91.90;;;;;;10022941;28;20457;-71
2023/03/19 02:46:55;;;;;;;5.78;2.00;;;14.00;91.90;;;;;;10033877;28;20038;-71
2023/03/19 02:51:46;;;;;;;3.53;2.05;;;14.10;91.90;;;;;;10035052;28;20415;-70
2023/03/19 02:56:36;;;;;;;3.38;2.10;;;14.10;91.80;;;;;;10047505;28;20065;-70
2023/03/19 03:01:27;;;;;;;6.45;2.45;;;14.00;91.80;;;;;;10019898;28;20390;-70
2023/03/19 03:06:18;;;;;;;3.22;2.10;;;14.10;91.80;;;;;;10024117;28;20025;-69
2023/03/19 03:11:08;;;;;;;4.60;2.08;;;14.10;91.80;;;;;;10031846;28;20554;-68
2023/03/19 03:15:59;;;;;;;3.72;1.63;;;14.10;91.70;;;;;;10033196;28;20061;-68
2023/03/19 03:20:50;;;;;;;4.75;2.15;;;14.10;91.70;;;;;;10048522;28;20030;-68
2023/03/19 03:25:41;;;;;;;3.13;2.08;;;14.10;91.70;;;;;;10025855;28;20397;-69
2023/03/19 03:30:32;;;;;;;2.92;2.08;;;14.10;91.70;;;;;;10043187;28;20029;-70
2023/03/19 03:35:23;;;;;;;3.70;1.67;;;14.00;91.60;;;;;;10037865;28;20458;-70
2023/03/19 03:40:15;;;;;;;2.42;1.80;;;14.00;91.60;;;;;;10023419;28;20029;-70
2023/03/19 03:45:06;;;;;;;2.47;1.70;;;14.00;91.60;;;;;;10027737;28;20061;-70
2023/03/19 03:49:57;;;;;;;3.92;1.83;;;14.00;91.50;;;;;;10044106;28;20831;-70
2023/03/19 03:54:47;;;;;;;3.65;1.95;;;13.90;91.60;;;;;;10048299;28;20038;-71
2023/03/19 03:59:38;;;;;;;5.60;1.83;;;13.90;91.50;;;;;;10026580;28;20492;-71
2023/03/19 04:04:29;;;;;;;3.17;1.48;;;13.90;91.50;;;;;;10029317;28;20029;-72
2023/03/19 04:09:20;;;;;;;3.58;1.80;;;13.90;91.40;;;;;;10030920;28;20395;-72
2023/03/19 04:14:11;;;;;;;2.33;1.60;;;13.80;91.40;;;;;;10039793;28;20124;-69
2023/03/19 04:19:01;;;;;;;4.72;1.77;;;13.80;91.40;;;;;;10036556;28;20124;-71
2023/03/19 04:23:52;;;;;;;4.70;2.45;;;13.80;91.40;;;;;;10026695;28;20033;-71
2023/03/19 04:28:43;;;;;;;1.75;1.25;;;13.70;91.40;;;;;;10048171;28;20026;-70
2023/03/19 04:33:34;;;;;;;2.92;1.83;;;13.80;91.30;;;;;;10035434;28;20038;-70
2023/03/19 04:38:26;;;;;;;4.93;1.88;;;13.70;91.40;;;;;;10019377;28;20018;-71
2023/03/19 04:43:17;;;;;;;3.05;1.50;;;13.80;91.50;;;;;;10028428;28;20057;-70
2023/03/19 04:48:07;;;;;;;3.17;2.00;;;13.80;91.40;;;;;;10022691;28;20050;-70
2023/03/19 04:52:58;;;;;;;3.65;2.17;;;13.80;91.50;;;;;;10023035;28;20544;-71
2023/03/19 04:57:48;;;;;;;6.22;1.92;;;13.80;91.50;;;;;;10026530;28;20026;-71
2023/03/19 05:02:41;;;;;;;2.90;1.67;;;13.70;91.60;;;;;;10030280;28;20030;-70
2023/03/19 05:07:32;;;;;;;3.40;1.48;;;13.70;91.70;;;;;;10020290;28;20024;-71
2023/03/19 05:12:23;;;;;;;2.22;1.83;;;13.60;91.80;;;;;;10022271;28;20382;-71
2023/03/19 05:17:14;;;;;;;2.72;1.38;;;13.60;91.90;;;;;;10022099;28;20033;-67
2023/03/19 05:22:05;;;;;;;2.78;1.10;;;13.60;92.00;;;;;;10010287;28;20171;-68
2023/03/19 05:26:56;;;;;;;5.22;2.10;;;13.60;92.00;;;;;;10043803;28;20033;-71
2023/03/19 05:31:46;;;;;;;2.58;1.40;;;13.60;92.10;;;;;;10035975;28;20504;-71
2023/03/19 05:36:37;;;;;;;2.50;1.30;;;13.60;92.10;;;;;;10018015;28;20041;-71
2023/03/19 05:41:28;;;;;;;3.55;1.60;;;13.50;92.10;;;;;;10034999;28;20055;-70
2023/03/19 05:46:18;;;;;;;1.80;1.08;;;13.50;92.30;;;;;;10039251;28;20121;-69
2023/03/19 05:51:10;;;;;;;1.65;1.13;;;13.50;92.30;;;;;;10031940;28;20529;-70
2023/03/19 05:56:01;;;;;;;4.22;1.73;;;13.50;92.30;;;;;;10046491;28;20044;-70
2023/03/19 06:00:55;;;;;;;3.00;1.67;;;13.60;92.30;;;;;;10040124;28;20400;-70
2023/03/19 06:05:48;;;;;;;4.18;1.98;;;13.60;92.30;;;;;;10022825;28;20029;-71
2023/03/19 06:10:39;;;;;;;3.83;1.48;;;13.60;92.30;;;;;;10021660;28;20380;-72
2023/03/19 06:15:30;;;;;;;3.90;1.90;;;13.50;92.30;;;;;;10032695;28;20056;-69
2023/03/19 06:20:20;;;;;;;2.00;1.42;;;13.60;92.30;;;;;;10027158;28;20026;-71
2023/03/19 06:25:11;;;;;;;4.53;1.70;;;13.50;92.30;;;;;;10030438;28;20036;-69
2023/03/19 06:30:02;;;;;;;1.88;1.27;;;13.50;92.40;;;;;;10025939;28;20009;-71
2023/03/19 06:34:55;;;;;;;2.88;1.90;;;13.60;92.40;;;;;;10027100;28;20038;-71
2023/03/19 06:39:45;;;;;;;5.13;1.60;;;13.60;92.40;;;;;;10028707;28;20261;-71
2023/03/19 06:44:36;;;;;;;5.00;1.58;;;13.70;92.50;;;;;;10033444;28;20033;-71
2023/03/19 06:49:27;;;;;;;3.03;1.60;;;13.70;92.40;;;;;;10045328;28;20174;-70
2023/03/19 06:54:17;;;;;;;2.65;1.60;;;13.60;92.50;;;;;;10042515;28;20504;-70
2023/03/19 06:59:11;;;;;;;2.35;1.75;;;13.70;92.60;;;;;;10046814;28;20032;-70
2023/03/19 07:04:02;;;;;;;4.60;2.10;;;13.70;92.60;;;;;;10026325;28;20080;-71
2023/03/19 07:08:53;;;;;;;2.92;1.55;;;13.80;92.60;;;;;;10030742;28;20090;-71
2023/03/19 07:13:45;;;;;;;3.65;1.83;;;13.80;92.60;;;;;;10027456;28;20492;-70
2023/03/19 07:18:35;;;;;;;2.88;2.00;;;13.80;92.60;;;;;;10032020;28;20135;-70
2023/03/19 07:23:26;;;;;;;2.20;1.35;;;14.00;92.70;;;;;;10026922;28;20014;-71
2023/03/19 07:28:17;;;;;;;2.78;1.48;;;14.00;92.70;;;;;;10042189;28;20481;-70
2023/03/19 07:33:07;;;;;;;1.92;1.30;;;14.10;92.80;;;;;;10035131;28;20296;-69
2023/03/19 07:37:59;;;;;;;3.75;1.80;;;14.20;92.80;;;;;;10022250;28;20050;-68
2023/03/19 07:42:50;;;;;;;2.08;1.52;;;14.30;92.70;;;;;;10016542;28;20018;-70
2023/03/19 07:47:40;;;;;;;2.20;1.45;;;14.30;92.70;;;;;;10017636;28;20445;-70
2023/03/19 07:52:31;;;;;;;2.50;1.55;;;14.20;92.70;;;;;;10027053;28;20018;-70
2023/03/19 07:57:24;;;;;;;3.38;2.10;;;14.30;92.90;;;;;;10009651;28;20480;-70
2023/03/19 08:02:14;;;;;;;2.38;1.60;;;14.30;92.70;;;;;;10024368;28;20068;-69
2023/03/19 08:07:05;;;;;;;4.38;1.42;;;14.30;92.60;;;;;;10018283;28;20149;-68
2023/03/19 08:11:56;;;;;;;3.25;1.63;;;14.40;92.60;;;;;;10011869;28;20133;-70
2023/03/19 08:16:48;;;;;;;4.47;2.05;;;14.40;92.50;;;;;;10022011;28;20065;-69
2023/03/19 08:21:38;;;;;;;3.28;1.80;;;14.40;92.50;;;;;;10019927;28;20030;-71
2023/03/19 08:26:29;;;;;;;5.85;2.13;;;14.50;92.50;;;;;;10018273;28;20651;-69
2023/03/19 08:31:20;;;;;;;2.20;1.42;;;14.50;92.40;;;;;;10039538;28;20018;-69
2023/03/19 08:36:13;;;;;;;3.42;1.73;;;14.50;92.40;;;;;;10024137;28;20056;-70
2023/03/19 08:41:05;;;;;;;3.05;2.08;;;14.60;92.40;;;;;;10027017;28;20072;-69
2023/03/19 08:45:55;;;;;;;2.67;1.70;;;14.80;92.30;;;;;;10023179;28;20517;-71
2023/03/19 08:50:54;;;;;;;4.18;1.67;;;15.00;92.20;;;;;;10041943;28;20022;-71
2023/03/19 08:55:51;;;;;;;3.42;1.65;;;15.10;92.20;;;;;;10038682;28;20033;-71
2023/03/19 09:00:42;;;;;;;3.50;2.13;;;15.20;92.30;;;;;;10043964;28;20120;-70
2023/03/19 09:05:32;;;;;;;5.25;2.28;;;15.40;92.10;;;;;;10027623;28;20113;-70
2023/03/19 09:10:23;;;;;;;3.38;1.38;;;15.40;92.10;;;;;;10028350;28;20025;-70
2023/03/19 09:15:14;;;;;;;3.60;2.33;;;15.60;92.00;;;;;;10034575;28;20084;-71
2023/03/19 09:20:06;;;;;;;5.55;2.85;;;15.70;92.00;;;;;;10024976;28;20397;-70
2023/03/19 09:24:57;;;;;;;2.50;1.65;;;15.80;91.90;;;;;;10030470;28;20497;-70
2023/03/19 09:29:47;;;;;;;2.55;1.92;;;16.00;91.90;;;;;;10048960;28;20112;-72
2023/03/19 09:34:39;;;;;;;2.22;1.77;;;16.10;91.70;;;;;;10026294;28;20046;-70
2023/03/19 09:39:31;;;;;;;3.78;2.50;;;16.30;91.70;;;;;;10028618;28;20519;-71
2023/03/19 09:44:39;;;;;;;4.45;2.03;;;16.30;91.90;;;;;;10032393;28;20056;-70
2023/03/19 09:49:43;;;;;;;2.25;1.55;;;16.30;91.40;;;;;;10034198;28;20082;-69
2023/03/19 09:54:51;;;;;;;6.28;2.90;;;16.20;91.50;;;;;;10044557;28;20535;-69
2023/03/19 09:59:42;;;;;;;4.50;1.95;;;16.30;91.40;;;;;;10029942;28;20026;-71
2023/03/19 10:04:51;;;;;;;3.50;1.73;;;16.30;91.50;;;;;;10025004;28;20049;-70
2023/03/19 10:10:06;;;;;;;2.15;1.38;;;16.50;91.30;;;;;;10025110;28;20501;-69
2023/03/19 10:15:14;;;;;;;5.97;2.00;;;16.50;91.40;;;;;;10025263;28;20101;-70
2023/03/19 10:20:14;;;;;;;2.20;1.50;;;16.40;91.30;;;;;;10035935;28;20038;-71
2023/03/19 10:25:10;;;;;;;2.63;1.23;;;16.40;91.30;;;;;;10017458;28;20037;-72
2023/03/19 10:30:01;;;;;;;3.85;1.50;;;16.20;91.20;;;;;;10046247;28;20029;-71
2023/03/19 10:34:54;;;;;;;3.05;1.55;;;16.30;91.20;;;;;;10022276;28;20523;-70
2023/03/19 10:39:48;;;;;;;2.10;1.48;;;16.60;91.10;;;;;;10026027;28;20041;-69
2023/03/19 10:44:49;;;;;;;4.80;1.92;;;16.80;91.10;;;;;;10029303;28;20096;-70
2023/03/19 10:49:40;;;;;;;3.33;1.77;;;16.80;91.10;;;;;;10049373;28;20057;-70
2023/03/19 10:54:31;;;;;;;3.97;2.22;;;16.50;91.30;;;;;;10050664;28;20434;-70
2023/03/19 10:59:37;;;;;;;5.90;1.73;;;16.20;91.30;;;;;;10030861;28;20126;-71
2023/03/19 11:04:28;;;;;;;2.63;2.22;;;16.10;91.40;;;;;;10025514;28;20076;-70
2023/03/19 11:09:40;;;;;;;4.47;1.90;;;16.00;91.40;;;;;;10030753;28;20511;-70
2023/03/19 11:14:37;;;;;;;3.13;2.00;;;15.90;91.40;;;;;;10035013;28;20034;-70
2023/03/19 11:19:31;;;;;;;3.25;2.95;;;15.90;91.50;;;;;;10042433;28;20080;-69
2023/03/19 11:24:22;;;;;;;2.88;2.00;;;16.10;91.70;;;;;;10017378;28;20022;-70
2023/03/19 11:29:13;;;;;;;3.30;1.60;;;16.40;91.70;;;;;;10039184;28;20052;-70
2023/03/19 11:39:14;;;;;;;4.05;2.17;;;16.80;92.10;;;;;;10020204;28;20058;-64
2023/03/19 11:44:08;;;;;;;3.55;1.92;;;16.80;92.30;;;;;;10033350;28;20468;-65
2023/03/19 11:49:11;;;;;;;4.30;2.25;;;16.80;92.20;;;;;;10051941;28;20026;-64
2023/03/19 11:54:04;;;;;;;4.45;2.67;;;16.90;92.40;;;;;;10038731;28;20042;-65
2023/03/19 11:59:28;;;;;;;4.88;2.25;;;16.90;92.50;;;;;;10059356;28;20535;-65
2023/03/19 12:04:25;;;;;;;4.32;2.72;;;17.10;92.60;;;;;;10028232;28;20480;-60
2023/03/19 12:09:22;;;;;;;4.15;2.15;;;16.90;92.70;;;;;;10032349;28;20105;-62
2023/03/19 12:14:45;;;;;;;6.97;3.38;;;16.70;92.90;;;;;;10037957;28;20037;-59
2023/03/19 12:19:54;;;;;;;3.28;1.77;;;17.00;92.90;;;;;;10040561;28;20396;-59
2023/03/19 12:25:22;;;;;;;4.50;1.75;;;17.10;92.70;;;;;;10016898;28;20030;-60
2023/03/19 12:30:33;;;;;;;2.20;1.50;;;17.10;92.70;;;;;;10050718;28;20051;-58
2023/03/19 12:35:33;;;;;;;6.53;2.13;;;17.00;92.60;;;;;;10022676;28;20088;-61
2023/03/19 12:40:35;;;;;;;3.65;1.95;;;16.80;92.70;;;;;;10029763;28;20018;-63
2023/03/19 12:45:26;;;;;;;2.95;2.15;;;16.80;92.60;;;;;;10054984;28;20034;-60
2023/03/19 12:50:21;;;;;;;3.60;1.40;;;16.50;92.70;;;;;;10036065;28;20499;-64
2023/03/19 12:55:21;;;;;;;2.88;1.85;;;16.50;92.70;;;;;;10051749;28;20463;-60
2023/03/19 13:00:25;;;;;;;2.47;1.88;;;16.80;92.40;;;;;;10009120;28;20058;-62
2023/03/19 13:05:32;;;;;;;2.97;1.80;;;17.20;92.30;;;;;;10025429;28;20041;-59
2023/03/19 13:10:23;;;;;;;2.65;1.55;;;17.90;92.00;;;;;;10025137;28;20057;-59
2023/03/19 13:15:32;;;;;;;5.05;1.73;;;18.20;92.00;;;;;;10037026;28;20069;-58
2023/03/19 13:21:09;;;;;;;2.30;1.35;;;18.00;92.10;;;;;;10037848;28;20038;-60
2023/03/19 13:26:03;;;;;;;2.65;1.27;;;18.10;92.00;;;;;;10031539;28;20030;-58
2023/03/19 13:30:58;;;;;;;1.60;0.98;;;17.90;92.00;;;;;;10040841;28;20030;-59
2023/03/19 13:35:50;;;;;;;1.75;0.82;;;17.50;92.10;;;;;;10037009;28;20046;-62
2023/03/19 13:40:58;;;;;;;2.80;0.98;;;17.50;91.90;;;;;;10028263;28;20080;-59
2023/03/19 13:45:53;;;;;;;0.95;0.82;;;17.70;91.70;;;;;;10022475;28;20029;-59
2023/03/19 13:51:01;;;;;;;1.25;0.75;;;18.60;91.30;;;;;;10025728;28;20026;-58
2023/03/19 13:55:56;;;;;;;0.43;0.43;;;18.90;91.10;;;;;;10033117;28;20056;-59
2023/03/19 14:00:55;;;;;;;;;;;19.20;91.10;;;;;;10023325;28;20025;-59
2023/03/19 14:05:47;;;;;;;1.52;0.70;;;18.80;90.90;;;;;;10028924;28;19905;-61
2023/03/19 14:10:46;;;;;;;3.10;1.17;;;17.80;91.40;;;;;;10034381;28;20025;-60
2023/03/19 14:15:40;;;;;;;1.65;0.88;;;17.30;91.40;;;;;;10035312;28;20033;-58
2023/03/19 14:20:34;;;;;;;2.35;0.90;;;17.00;91.40;;;;;;10025134;28;20036;-58
2023/03/19 14:25:27;;;;;;;0.70;0.50;;;16.50;91.40;;;;;;10040169;28;20031;-59
2023/03/19 14:30:37;;;;;;;0.65;0.65;;;16.20;91.50;;;;;;10040822;28;20112;-59
2023/03/19 14:35:35;;;;;;;1.17;0.95;;;15.90;91.90;;;;;;10020306;28;20058;-59
2023/03/19 14:40:41;;;;;;;1.27;0.70;;;15.60;92.20;;;;;;10026043;28;20073;-59
2023/03/19 14:45:58;;;;;;;1.67;0.93;;;15.20;93.00;;;;;;10034324;28;20522;-63
2023/03/19 14:51:09;;;;;;;1.63;1.00;;;15.20;93.50;;;;;;10042681;28;20432;-59
2023/03/19 14:56:13;;;;;;;1.27;1.17;;;15.20;93.80;;;;;;10030400;28;20046;-60
2023/03/19 15:01:05;;;;;;;1.42;0.90;;;15.30;94.30;;;;;;10021331;28;20044;-62
2023/03/19 15:06:00;;;;;;;0.80;0.70;;;15.40;94.70;;;;;;10030229;28;20090;-65
2023/03/19 15:11:15;;;;;;;0.88;0.65;;;15.50;95.00;;;;;;10035471;28;20026;-62
2023/03/19 15:16:31;;;;;;;0.77;0.77;;;15.50;95.40;;;;;;10041442;28;20362;-60
2023/03/19 15:21:22;;;;;;;1.55;1.27;;;15.40;95.70;;;;;;10035813;28;20014;-59
2023/03/19 15:26:14;;;;;;;1.88;1.10;;;15.70;95.70;;;;;;10038990;28;20022;-64
2023/03/19 15:31:05;;;;;;;1.27;1.17;;;15.90;95.80;;;;;;10046786;28;20518;-57
2023/03/19 15:35:59;;;;;;;2.00;1.38;;;20.00;94.40;;;;;;10024967;28;20093;-60
2023/03/19 15:40:50;;;;;;;1.27;1.10;;;24.60;91.30;;;;;;10029780;28;20662;-59
2023/03/19 15:45:46;;;;;;;1.77;0.95;;;20.60;93.70;;;;;;10042386;28;20267;-59
2023/03/19 15:50:41;;;;;;;3.83;2.13;;;18.60;95.70;;;;;;10045149;28;20076;-62
2023/03/19 15:55:35;;;;;;;1.67;1.17;;;22.20;94.10;;;;;;10033188;28;20044;-61
2023/03/19 16:00:25;;;;;;;3.30;1.40;;;24.10;91.30;;;;;;10008767;28;20511;-60
2023/03/19 16:05:26;;;;;;;1.85;1.10;;;20.80;93.80;;;;;;10026127;28;20033;-59
2023/03/19 16:10:39;;;;;;;2.47;1.10;;;19.00;94.90;;;;;;10015273;28;20672;-61
2023/03/19 16:15:42;;;;;;;1.48;0.80;;;17.50;95.90;;;;;;10029085;28;20403;-60
2023/03/19 16:20:40;;;;;;;1.70;0.98;;;16.90;96.10;;;;;;10039256;28;20029;-60
2023/03/19 16:25:31;;;;;;;1.58;0.65;;;16.60;96.00;;;;;;10012744;28;20026;-61
2023/03/19 16:30:24;;;;;;;2.17;0.90;;;16.30;96.00;;;;;;10028119;28;20116;-58
2023/03/19 16:35:19;;;;;;;1.08;0.73;;;16.00;96.10;;;;;;10037346;28;20042;-60
2023/03/19 16:40:12;;;;;;;1.73;1.00;;;15.80;96.20;;;;;;10031030;28;20091;-61
2023/03/19 16:45:21;;;;;;;2.10;1.10;;;15.70;96.10;;;;;;10040700;28;20050;-60
2023/03/19 16:50:12;;;;;;;1.88;1.13;;;15.80;96.10;;;;;;10045400;28;20066;-57
2023/03/19 16:55:10;;;;;;;3.28;1.20;;;15.80;95.90;;;;;;10050127;28;20041;-59
2023/03/19 17:00:01;;;;;;;2.38;1.25;;;15.80;96.00;;;;;;10019448;28;20029;-65
2023/03/19 17:04:51;;;;;;;2.80;1.67;;;15.70;95.90;;;;;;10025829;28;20030;-62
2023/03/19 17:09:42;;;;;;;1.23;0.80;;;15.60;96.30;;;;;;10030341;28;20432;-62
2023/03/19 17:14:34;;;;;;;0.82;0.68;;;15.40;96.50;;;;;;10043497;28;20111;-62
2023/03/19 17:19:34;;;;;;;1.00;0.70;;;15.20;96.80;;;;;;10045959;28;20036;-62
2023/03/19 17:24:27;;;;;;;1.60;1.15;;;15.20;96.70;;;;;;10018349;28;20017;-60
2023/03/19 17:29:19;;;;;;;1.60;1.08;;;15.10;96.80;;;;;;10037411;28;20029;-61
2023/03/19 17:34:21;;;;;;;1.13;0.60;;;15.20;96.90;;;;;;10017227;28;20033;-64
2023/03/19 17:39:12;;;;;;;1.02;0.70;;;14.50;97.40;;;;;;10023305;28;20054;-63
2023/03/19 17:44:03;;;;;;;3.33;0.98;;;13.80;97.80;;;;;;10013186;28;20022;-58
2023/03/19 17:48:54;;;;;;;2.97;1.02;;;13.30;98.20;;;;;;10046780;28;20512;-58
2023/03/19 17:53:55;;;;;;;1.63;1.00;;;12.90;98.40;;;;;;10131901;28;20399;-59
2023/03/19 17:58:45;;;;;;;2.03;0.70;;;12.70;98.80;;;;;;10118455;28;20070;-58
2023/03/19 18:03:36;;;;;;;1.33;0.80;;;12.50;99.00;;;;;;10095797;28;20492;-58
2023/03/19 18:08:27;;;;;;;1.02;0.93;;;12.40;99.20;;;;;;10096528;28;20440;-59
2023/03/19 18:13:17;;;;;;;1.27;0.68;;;12.30;99.30;;;;;;10100196;28;20029;-56
2023/03/19 18:18:18;;;;;;;1.63;1.20;;;12.10;99.40;;;;;;10107991;28;20100;-60
2023/03/19 18:23:10;;;;;;;3.13;0.88;;;12.10;99.70;;;;;;10097104;28;20052;-54
2023/03/19 18:28:02;;;;;;;2.47;1.33;;;12.20;99.90;;;;;;10115506;28;20029;-60
2023/03/19 18:32:57;;;;;;;2.38;0.85;;;12.20;99.90;;;;;;10103579;28;20068;-55
2023/03/19 18:37:50;;;;;;;4.20;1.10;;;12.20;99.90;;;;;;10094299;28;20249;-57
2023/03/19 18:42:41;;;;;;;2.35;1.40;;;12.40;99.90;;;;;;10086827;28;20037;-60
2023/03/19 18:47:32;;;;;;;2.78;1.63;;;12.30;99.90;;;;;;10116324;28;20127;-60
2023/03/19 18:52:23;;;;;;;3.78;1.35;;;12.30;99.90;;;;;;10115323;28;20130;-59
2023/03/19 18:57:15;;;;;;;4.20;1.50;;;12.40;99.90;;;;;;10095610;28;20087;-57
2023/03/19 19:02:33;;;;;;;4.32;1.75;;;12.40;99.90;;;;;;10084951;28;20029;-62
2023/03/19 19:07:24;;;;;;;3.35;1.73;;;12.30;99.90;;;;;;10065507;28;20384;-58
2023/03/19 19:12:16;;;;;;;4.55;2.30;;;12.40;99.90;;;;;;10078715;28;20051;-59
2023/03/19 19:17:17;;;;;;;5.90;3.00;;;12.40;99.90;;;;;;10075938;28;20029;-58
2023/03/19 19:22:13;;;;;;;7.22;3.03;;;12.50;99.90;;;;;;10076547;28;20026;-61
2023/03/19 19:27:04;;;;;;;14.80;5.68;;;12.60;99.90;;;;;;10083188;28;20104;-58
2023/03/19 19:31:56;;;;;;;9.00;3.30;;;12.50;99.90;;;;;;10079569;28;20032;-58
2023/03/19 19:36:47;;;;;;;6.03;2.25;;;12.60;99.90;;;;;;10063466;28;20033;-62
2023/03/19 19:41:38;;;;;;;5.57;2.00;;;12.50;99.90;;;;;;10066496;28;20447;-59
2023/03/19 19:46:33;;;;;;;3.45;1.73;;;12.40;99.90;;;;;;10064831;28;20025;-62
2023/03/19 19:51:26;;;;;;;3.83;1.43;;;12.30;99.90;;;;;;10073008;28;20072;-59
2023/03/19 19:56:20;;;;;;;6.05;3.72;;;12.20;99.90;;;;;;10082131;28;20045;-60
2023/03/19 20:01:20;;;;;;;3.40;1.90;;;12.30;99.90;;;;;;10072646;28;20496;-61
2023/03/19 20:06:11;;;;;;;5.97;2.90;;;12.10;99.90;;;;;;10055868;28;20360;-62
2023/03/19 20:11:02;;;;;;;5.60;2.80;;;12.20;99.90;;;;;;10057304;28;20029;-61
2023/03/19 20:15:55;;;;;;;3.53;1.88;;;12.20;99.90;;;;;;10055711;28;20033;-60
2023/03/19 20:20:46;;;;;;;5.18;2.25;;;12.30;99.90;;;;;;10074005;28;20029;-60
2023/03/19 20:25:40;;;;;;;6.43;1.95;;;12.30;99.90;;;;;;10076260;28;20025;-61
2023/03/19 20:30:40;;;;;;;4.45;1.63;;;12.40;99.90;;;;;;10084816;28;20465;-61
2023/03/19 20:35:33;;;;;;;5.60;2.38;;;12.50;99.90;;;;;;10059520;28;20029;-60
2023/03/19 20:40:39;;;;;;;3.63;1.67;;;12.40;99.90;;;;;;10064853;28;20589;-59
2023/03/19 20:45:35;;;;;;;3.00;1.67;;;12.30;99.90;;;;;;10074921;28;20029;-61
2023/03/19 20:50:28;;;;;;;3.63;1.58;;;12.20;99.90;;;;;;10077864;28;20049;-59
2023/03/19 20:55:27;;;;;;;2.90;1.73;;;12.10;99.90;;;;;;10088129;28;20029;-60
2023/03/19 21:00:27;;;;;;;3.35;1.27;;;12.10;99.90;;;;;;10090761;28;20034;-60
2023/03/19 21:05:19;;;;;;;2.05;1.20;;;12.30;99.90;;;;;;10041764;28;20088;-62
2023/03/19 21:10:28;;;;;;;2.13;1.10;;;12.20;99.90;;;;;;10061594;28;20040;-60
2023/03/19 21:15:19;;;;;;;2.53;1.10;;;12.30;99.90;;;;;;10070152;28;20024;-61
2023/03/19 21:20:22;;;;;;;3.03;1.23;;;12.20;99.90;;;;;;10074520;28;20037;-60
2023/03/19 21:25:21;;;;;;;2.00;1.27;;;12.20;99.90;;;;;;10066322;28;20282;-59
2023/03/19 21:30:15;;;;;;;1.48;1.08;;;12.30;99.90;;;;;;10073156;28;20814;-58
2023/03/19 21:35:13;;;;;;;1.20;1.10;;;12.30;99.90;;;;;;10051791;28;20476;-58
2023/03/19 21:40:04;;;;;;;2.58;2.00;;;12.40;99.90;;;;;;10056605;28;20034;-63
2023/03/19 21:44:58;;;;;;;2.50;1.05;;;12.40;99.90;;;;;;10060631;28;20390;-62
2023/03/19 21:49:48;;;;;;;2.83;1.13;;;12.30;99.90;;;;;;10058941;28;20562;-58
2023/03/19 21:54:40;;;;;;;4.47;1.50;;;12.20;99.90;;;;;;10087425;28;20029;-59
2023/03/19 21:59:32;;;;;;;2.72;1.05;;;12.20;99.90;;;;;;10096051;28;20029;-58
2023/03/19 22:04:23;;;;;;;3.08;1.20;;;12.20;99.90;;;;;;10073743;28;20365;-60
2023/03/19 22:09:13;;;;;;;2.03;1.02;;;12.10;99.90;;;;;;10097732;28;20017;-57
2023/03/19 22:14:11;;;;;;;5.93;1.98;;;12.00;99.90;;;;;;10083120;28;20035;-59
2023/03/19 22:19:03;;;;;;;2.85;1.40;;;12.00;99.90;;;;;;10091947;28;20036;-59
2023/03/19 22:23:53;;;;;;;2.45;1.27;;;11.90;99.90;;;;;;10078778;28;20096;-58
2023/03/19 22:28:44;;;;;;;1.77;1.27;;;12.00;99.90;;;;;;10078287;28;20116;-58
2023/03/19 22:33:34;;;;;;;2.20;1.35;;;11.80;99.90;;;;;;10083701;28;20083;-59
2023/03/19 22:38:25;;;;;;;3.90;2.10;;;11.70;99.90;;;;;;10080618;28;20082;-59
2023/03/19 22:43:29;;;;;;;3.33;1.38;;;11.80;99.90;;;;;;10079282;28;20488;-58
2023/03/19 22:48:19;;;;;;;2.15;1.10;;;11.90;99.90;;;;;;10100749;28;20017;-59
2023/03/19 22:53:29;;;;;;;2.83;1.38;;;12.10;99.90;;;;;;10102085;28;20526;-58
2023/03/19 22:58:19;;;;;;;1.90;1.50;;;12.00;99.90;;;;;;10099749;28;20088;-59
2023/03/19 23:03:21;;;;;;;1.77;1.20;;;11.90;99.90;;;;;;10088399;28;20051;-61
2023/03/19 23:08:16;;;;;;;1.83;1.05;;;11.90;99.90;;;;;;10104000;28;20506;-60
2023/03/19 23:13:08;;;;;;;1.67;1.30;;;12.00;99.90;;;;;;10103736;28;20131;-59
2023/03/19 23:18:00;;;;;;;2.63;1.67;;;12.10;99.90;;;;;;10082949;28;20530;-58
2023/03/19 23:22:51;;;;;;;2.92;1.50;;;12.00;99.90;;;;;;10094954;28;20033;-57
2023/03/19 23:27:43;;;;;;;2.20;1.40;;;11.90;99.90;;;;;;10094983;28;20032;-58
2023/03/19 23:32:33;;;;;;;2.58;1.60;;;11.90;99.90;;;;;;10088195;28;20044;-58
2023/03/19 23:37:24;;;;;;;1.80;1.08;;;12.00;99.90;;;;;;10089188;28;20108;-58
2023/03/19 23:42:26;;;;;;;2.10;1.63;;;12.00;99.90;;;;;;10090630;28;20300;-57
2023/03/19 23:47:17;;;;;;;1.73;1.10;;;11.90;99.90;;;;;;10096018;28;20085;-57
2023/03/19 23:52:12;;;;;;;1.83;1.20;;;11.90;99.90;;;;;;10099452;28;20045;-58
2023/03/19 23:57:06;;;;;;;1.20;0.90;;;11.80;99.90;;;;;;10088983;28;20098;-57
